sensor_id;sensor_type;location;lat;lon;timestamp;pressure;altitude;pressure_sealevel;temperature;humidity
24610;BME280;12758;47.890;11.694;2023-06-14T00:01:52;93370.72;;;19.42;43.32
24610;BME280;12758;47.890;11.694;2023-06-14T00:04:18;93361.28;;;19.36;43.25
24610;BME280;12758;47.890;11.694;2023-06-14T00:06:46;93369.16;;;19.34;43.52
24610;BME280;12758;47.890;11.694;2023-06-14T00:09:12;93366.00;;;19.32;43.35
24610;BME280;12758;47.890;11.694;2023-06-14T00:11:39;93361.28;;;19.29;43.52
24610;BME280;12758;47.890;11.694;2023-06-14T00:14:05;93372.28;;;19.29;43.44
24610;BME280;12758;47.890;11.694;2023-06-14T00:16:31;93368.38;;;19.26;43.68
24610;BME280;12758;47.890;11.694;2023-06-14T00:18:59;93370.31;;;19.26;43.51
24610;BME280;12758;47.890;11.694;2023-06-14T00:21:25;93368.78;;;19.18;43.92
24610;BME280;12758;47.890;11.694;2023-06-14T00:23:55;93365.25;;;19.14;44.10
24610;BME280;12758;47.890;11.694;2023-06-14T00:26:21;93362.09;;;19.12;44.09
24610;BME280;12758;47.890;11.694;2023-06-14T00:28:48;93362.88;;;19.08;43.99
24610;BME280;12758;47.890;11.694;2023-06-14T00:31:14;93364.44;;;19.06;44.10
24610;BME280;12758;47.890;11.694;2023-06-14T00:33:40;93362.88;;;19.08;44.08
24610;BME280;12758;47.890;11.694;2023-06-14T00:36:06;93363.28;;;19.07;44.23
24610;BME280;12758;47.890;11.694;2023-06-14T00:38:32;93364.44;;;19.06;44.05
24610;BME280;12758;47.890;11.694;2023-06-14T00:40:58;93369.94;;;19.09;44.02
24610;BME280;12758;47.890;11.694;2023-06-14T00:43:24;93370.75;;;19.06;44.39
24610;BME280;12758;47.890;11.694;2023-06-14T00:45:51;93364.44;;;19.09;44.07
24610;BME280;12758;47.890;11.694;2023-06-14T00:48:17;93369.56;;;19.07;44.32
24610;BME280;12758;47.890;11.694;2023-06-14T00:50:44;93366.81;;;19.00;44.27
24610;BME280;12758;47.890;11.694;2023-06-14T00:53:11;93365.25;;;18.96;44.42
24610;BME280;12758;47.890;11.694;2023-06-14T00:55:37;93353.47;;;18.95;44.50
24610;BME280;12758;47.890;11.694;2023-06-14T00:58:03;93358.56;;;18.93;44.60
24610;BME280;12758;47.890;11.694;2023-06-14T01:00:29;93364.06;;;18.90;44.65
24610;BME280;12758;47.890;11.694;2023-06-14T01:02:55;93358.56;;;18.86;44.67
24610;BME280;12758;47.890;11.694;2023-06-14T01:05:22;93366.81;;;18.90;44.74
24610;BME280;12758;47.890;11.694;2023-06-14T01:08:01;93356.59;;;18.83;44.59
24610;BME280;12758;47.890;11.694;2023-06-14T01:10:35;93364.06;;;18.79;44.73
24610;BME280;12758;47.890;11.694;2023-06-14T01:13:07;93365.63;;;18.73;45.22
24610;BME280;12758;47.890;11.694;2023-06-14T01:15:34;93365.19;;;18.67;45.34
24610;BME280;12758;47.890;11.694;2023-06-14T01:18:02;93365.19;;;18.63;45.32
24610;BME280;12758;47.890;11.694;2023-06-14T01:20:29;93355.00;;;18.60;45.42
24610;BME280;12758;47.890;11.694;2023-06-14T01:22:56;93355.00;;;18.60;45.41
24610;BME280;12758;47.890;11.694;2023-06-14T01:25:22;93357.31;;;18.58;45.14
24610;BME280;12758;47.890;11.694;2023-06-14T01:27:49;93355.00;;;18.53;45.66
24610;BME280;12758;47.890;11.694;2023-06-14T01:30:17;93358.09;;;18.48;45.72
24610;BME280;12758;47.890;11.694;2023-06-14T01:32:44;93349.50;;;18.46;45.67
24610;BME280;12758;47.890;11.694;2023-06-14T01:35:10;93349.88;;;18.48;45.53
24610;BME280;12758;47.890;11.694;2023-06-14T01:37:37;93350.63;;;18.45;45.56
24610;BME280;12758;47.890;11.694;2023-06-14T01:40:05;93348.66;;;18.42;45.61
24610;BME280;12758;47.890;11.694;2023-06-14T01:42:32;93343.97;;;18.39;45.80
24610;BME280;12758;47.890;11.694;2023-06-14T01:44:59;93351.03;;;18.40;45.70
24610;BME280;12758;47.890;11.694;2023-06-14T01:47:26;93349.44;;;18.35;45.88
24610;BME280;12758;47.890;11.694;2023-06-14T01:49:52;93348.25;;;18.33;45.85
24610;BME280;12758;47.890;11.694;2023-06-14T01:52:18;93351.00;;;18.33;45.87
24610;BME280;12758;47.890;11.694;2023-06-14T01:54:44;93349.44;;;18.32;45.83
24610;BME280;12758;47.890;11.694;2023-06-14T01:57:12;93351.81;;;18.30;45.85
24610;BME280;12758;47.890;11.694;2023-06-14T01:59:38;93349.03;;;18.26;45.83
24610;BME280;12758;47.890;11.694;2023-06-14T02:02:04;93345.13;;;18.24;45.95
24610;BME280;12758;47.890;11.694;2023-06-14T02:04:30;93340.00;;;18.19;46.11
24610;BME280;12758;47.890;11.694;2023-06-14T02:06:56;93340.00;;;18.15;46.40
24610;BME280;12758;47.890;11.694;2023-06-14T02:09:22;93346.66;;;18.14;46.39
24610;BME280;12758;47.890;11.694;2023-06-14T02:11:49;93343.88;;;18.10;46.35
24610;BME280;12758;47.890;11.694;2023-06-14T02:14:15;93344.69;;;18.07;46.46
24610;BME280;12758;47.890;11.694;2023-06-14T02:16:42;93343.09;;;18.06;46.47
24610;BME280;12758;47.890;11.694;2023-06-14T02:19:14;93339.97;;;18.04;46.45
24610;BME280;12758;47.890;11.694;2023-06-14T02:21:40;93334.44;;;18.01;46.59
24610;BME280;12758;47.890;11.694;2023-06-14T02:24:06;93331.69;;;17.97;46.43
24610;BME280;12758;47.890;11.694;2023-06-14T02:26:32;93334.44;;;17.97;46.47
24610;BME280;12758;47.890;11.694;2023-06-14T02:28:58;93341.50;;;17.95;46.46
24610;BME280;12758;47.890;11.694;2023-06-14T02:31:26;93340.69;;;17.94;46.19
24610;BME280;12758;47.890;11.694;2023-06-14T02:33:52;93337.59;;;17.96;46.35
24610;BME280;12758;47.890;11.694;2023-06-14T02:36:18;93330.91;;;17.93;46.22
24610;BME280;12758;47.890;11.694;2023-06-14T02:38:46;93330.09;;;17.89;46.25
24610;BME280;12758;47.890;11.694;2023-06-14T02:41:12;93330.88;;;17.86;46.18
24610;BME280;12758;47.890;11.694;2023-06-14T02:43:38;93329.69;;;17.80;46.42
24610;BME280;12758;47.890;11.694;2023-06-14T02:46:04;93343.41;;;17.80;46.40
24610;BME280;12758;47.890;11.694;2023-06-14T02:48:31;93331.22;;;17.77;46.49
24610;BME280;12758;47.890;11.694;2023-06-14T02:50:57;93332.75;;;17.75;46.45
24610;BME280;12758;47.890;11.694;2023-06-14T02:53:23;93335.13;;;17.73;46.44
24610;BME280;12758;47.890;11.694;2023-06-14T02:55:49;93340.19;;;17.70;46.36
24610;BME280;12758;47.890;11.694;2023-06-14T02:58:15;93342.16;;;17.66;46.63
24610;BME280;12758;47.890;11.694;2023-06-14T03:00:41;93338.22;;;17.64;46.62
24610;BME280;12758;47.890;11.694;2023-06-14T03:03:07;93339.75;;;17.61;46.57
24610;BME280;12758;47.890;11.694;2023-06-14T03:05:41;93335.03;;;17.58;46.61
24610;BME280;12758;47.890;11.694;2023-06-14T03:08:11;93341.28;;;17.55;46.63
24610;BME280;12758;47.890;11.694;2023-06-14T03:10:42;93336.56;;;17.52;46.81
24610;BME280;12758;47.890;11.694;2023-06-14T03:13:08;93342.06;;;17.52;46.70
24610;BME280;12758;47.890;11.694;2023-06-14T03:15:36;93347.16;;;17.50;46.80
24610;BME280;12758;47.890;11.694;2023-06-14T03:18:02;93340.50;;;17.51;46.79
24610;BME280;12758;47.890;11.694;2023-06-14T03:20:29;93338.94;;;17.50;46.39
24610;BME280;12758;47.890;11.694;2023-06-14T03:22:59;93337.34;;;17.49;46.35
24610;BME280;12758;47.890;11.694;2023-06-14T03:25:25;93344.78;;;17.45;46.58
24610;BME280;12758;47.890;11.694;2023-06-14T03:27:54;93345.19;;;17.43;46.81
24610;BME280;12758;47.890;11.694;2023-06-14T03:30:20;93348.28;;;17.42;46.48
24610;BME280;12758;47.890;11.694;2023-06-14T03:32:46;93344.34;;;17.39;46.71
24610;BME280;12758;47.890;11.694;2023-06-14T03:35:12;93353.41;;;17.40;46.72
24610;BME280;12758;47.890;11.694;2023-06-14T03:37:42;93347.47;;;17.34;46.82
24610;BME280;12758;47.890;11.694;2023-06-14T03:40:10;93346.69;;;17.34;46.83
24610;BME280;12758;47.890;11.694;2023-06-14T03:42:36;93345.50;;;17.35;46.48
24610;BME280;12758;47.890;11.694;2023-06-14T03:45:03;93354.53;;;17.35;46.48
24610;BME280;12758;47.890;11.694;2023-06-14T03:47:29;93351.75;;;17.32;46.74
24610;BME280;12758;47.890;11.694;2023-06-14T03:49:55;93362.31;;;17.30;46.67
24610;BME280;12758;47.890;11.694;2023-06-14T03:52:21;93360.75;;;17.29;46.70
24610;BME280;12758;47.890;11.694;2023-06-14T03:54:47;93359.97;;;17.25;47.18
24610;BME280;12758;47.890;11.694;2023-06-14T03:57:14;93372.50;;;17.26;46.70
24610;BME280;12758;47.890;11.694;2023-06-14T03:59:40;93374.81;;;17.23;46.92
24610;BME280;12758;47.890;11.694;2023-06-14T04:02:06;93365.44;;;17.21;47.12
24610;BME280;12758;47.890;11.694;2023-06-14T04:04:32;93372.44;;;17.18;46.67
24610;BME280;12758;47.890;11.694;2023-06-14T04:07:00;93376.38;;;17.17;47.00
24610;BME280;12758;47.890;11.694;2023-06-14T04:09:28;93376.38;;;17.17;47.04
24610;BME280;12758;47.890;11.694;2023-06-14T04:11:55;93378.69;;;17.15;46.96
24610;BME280;12758;47.890;11.694;2023-06-14T04:14:21;93374.75;;;17.13;47.07
24610;BME280;12758;47.890;11.694;2023-06-14T04:16:48;93376.31;;;17.14;47.18
24610;BME280;12758;47.890;11.694;2023-06-14T04:19:14;93379.47;;;17.12;47.08
24610;BME280;12758;47.890;11.694;2023-06-14T04:21:40;93381.78;;;17.10;47.12
24610;BME280;12758;47.890;11.694;2023-06-14T04:24:06;93382.97;;;17.09;47.40
24610;BME280;12758;47.890;11.694;2023-06-14T04:26:39;93379.81;;;17.07;47.32
24610;BME280;12758;47.890;11.694;2023-06-14T04:29:05;93386.88;;;17.05;47.48
24610;BME280;12758;47.890;11.694;2023-06-14T04:31:32;93379.34;;;16.98;47.65
24610;BME280;12758;47.890;11.694;2023-06-14T04:33:59;93391.06;;;16.95;48.24
24610;BME280;12758;47.890;11.694;2023-06-14T04:36:25;93390.31;;;16.98;47.76
24610;BME280;12758;47.890;11.694;2023-06-14T04:38:53;93401.63;;;16.93;48.23
24610;BME280;12758;47.890;11.694;2023-06-14T04:41:20;93401.59;;;16.86;48.36
24610;BME280;12758;47.890;11.694;2023-06-14T04:43:48;93415.38;;;15.05;61.46
24610;BME280;12758;47.890;11.694;2023-06-14T04:46:14;93416.34;;;13.46;75.68
24610;BME280;12758;47.890;11.694;2023-06-14T04:48:41;93419.94;;;13.70;77.35
24610;BME280;12758;47.890;11.694;2023-06-14T04:51:08;93420.81;;;13.93;73.64
24610;BME280;12758;47.890;11.694;2023-06-14T04:53:34;93418.06;;;13.55;83.21
24610;BME280;12758;47.890;11.694;2023-06-14T04:56:00;93419.53;;;13.87;81.08
24610;BME280;12758;47.890;11.694;2023-06-14T04:58:26;93422.53;;;13.82;81.78
24610;BME280;12758;47.890;11.694;2023-06-14T05:00:53;93419.66;;;13.75;83.05
24610;BME280;12758;47.890;11.694;2023-06-14T05:03:19;93424.03;;;13.80;81.26
24610;BME280;12758;47.890;11.694;2023-06-14T05:05:50;93431.72;;;13.03;90.00
24610;BME280;12758;47.890;11.694;2023-06-14T05:08:16;93430.81;;;13.31;91.75
24610;BME280;12758;47.890;11.694;2023-06-14T05:10:42;93426.56;;;13.69;84.71
24610;BME280;12758;47.890;11.694;2023-06-14T05:13:08;93433.09;;;14.03;82.69
24610;BME280;12758;47.890;11.694;2023-06-14T05:15:36;93431.50;;;13.63;86.83
24610;BME280;12758;47.890;11.694;2023-06-14T05:18:02;93436.13;;;13.43;89.71
24610;BME280;12758;47.890;11.694;2023-06-14T05:20:28;93430.09;;;13.34;90.67
24610;BME280;12758;47.890;11.694;2023-06-14T05:22:54;93429.16;;;14.01;82.10
24610;BME280;12758;47.890;11.694;2023-06-14T05:25:22;93429.56;;;13.83;81.94
24610;BME280;12758;47.890;11.694;2023-06-14T05:27:48;93429.94;;;13.62;83.05
24610;BME280;12758;47.890;11.694;2023-06-14T05:30:15;93430.41;;;13.48;85.93
24610;BME280;12758;47.890;11.694;2023-06-14T05:32:41;93446.78;;;14.26;81.25
24610;BME280;12758;47.890;11.694;2023-06-14T05:35:08;93433.50;;;13.86;78.77
24610;BME280;12758;47.890;11.694;2023-06-14T05:37:34;93436.88;;;14.18;74.28
24610;BME280;12758;47.890;11.694;2023-06-14T05:40:00;93437.00;;;14.44;72.14
24610;BME280;12758;47.890;11.694;2023-06-14T05:42:26;93443.16;;;14.84;70.42
24610;BME280;12758;47.890;11.694;2023-06-14T05:44:53;93445.53;;;14.85;70.19
24610;BME280;12758;47.890;11.694;2023-06-14T05:47:19;93448.00;;;15.17;69.88
24610;BME280;12758;47.890;11.694;2023-06-14T05:49:45;93445.97;;;14.87;70.20
24610;BME280;12758;47.890;11.694;2023-06-14T05:52:11;93444.47;;;14.67;72.29
24610;BME280;12758;47.890;11.694;2023-06-14T05:54:38;93441.56;;;14.60;74.45
24610;BME280;12758;47.890;11.694;2023-06-14T05:57:05;93444.31;;;15.06;74.26
24610;BME280;12758;47.890;11.694;2023-06-14T05:59:31;93445.34;;;15.24;72.74
24610;BME280;12758;47.890;11.694;2023-06-14T06:01:57;93437.75;;;15.37;71.44
24610;BME280;12758;47.890;11.694;2023-06-14T06:04:23;93439.38;;;15.42;71.05
24610;BME280;12758;47.890;11.694;2023-06-14T06:06:49;93442.41;;;15.36;73.43
24610;BME280;12758;47.890;11.694;2023-06-14T06:09:15;93453.06;;;15.68;72.45
24610;BME280;12758;47.890;11.694;2023-06-14T06:11:41;93446.53;;;15.23;73.22
24610;BME280;12758;47.890;11.694;2023-06-14T06:14:08;93453.06;;;15.68;73.91
24610;BME280;12758;47.890;11.694;2023-06-14T06:16:34;93452.69;;;16.00;71.64
24610;BME280;12758;47.890;11.694;2023-06-14T06:19:00;93457.16;;;15.81;72.58
24610;BME280;12758;47.890;11.694;2023-06-14T06:21:26;93447.66;;;16.36;68.98
24610;BME280;12758;47.890;11.694;2023-06-14T06:23:52;93447.16;;;15.93;71.10
24610;BME280;12758;47.890;11.694;2023-06-14T06:26:21;93453.22;;;16.09;69.58
24610;BME280;12758;47.890;11.694;2023-06-14T06:28:47;93459.34;;;16.33;68.48
24610;BME280;12758;47.890;11.694;2023-06-14T06:31:14;93450.13;;;16.48;68.17
24610;BME280;12758;47.890;11.694;2023-06-14T06:33:40;93463.69;;;16.74;65.83
24610;BME280;12758;47.890;11.694;2023-06-14T06:36:06;93460.47;;;16.65;65.09
24610;BME280;12758;47.890;11.694;2023-06-14T06:38:32;93462.97;;;16.77;64.80
24610;BME280;12758;47.890;11.694;2023-06-14T06:40:58;93463.06;;;16.88;64.27
24610;BME280;12758;47.890;11.694;2023-06-14T06:43:25;93471.31;;;16.88;65.56
24610;BME280;12758;47.890;11.694;2023-06-14T06:45:51;93461.91;;;16.52;67.22
24610;BME280;12758;47.890;11.694;2023-06-14T06:48:17;93462.00;;;16.63;68.29
24610;BME280;12758;47.890;11.694;2023-06-14T06:50:43;93463.34;;;16.39;68.17
24610;BME280;12758;47.890;11.694;2023-06-14T06:53:09;93471.06;;;17.04;64.12
24610;BME280;12758;47.890;11.694;2023-06-14T06:55:35;93480.00;;;16.60;67.08
24610;BME280;12758;47.890;11.694;2023-06-14T06:58:02;93472.75;;;17.19;63.07
24610;BME280;12758;47.890;11.694;2023-06-14T07:00:30;93477.63;;;17.37;61.33
24610;BME280;12758;47.890;11.694;2023-06-14T07:02:56;93470.53;;;17.36;61.13
24610;BME280;12758;47.890;11.694;2023-06-14T07:05:23;93479.13;;;17.31;61.66
24610;BME280;12758;47.890;11.694;2023-06-14T07:07:49;93472.94;;;16.93;65.84
24610;BME280;12758;47.890;11.694;2023-06-14T07:10:15;93476.03;;;17.39;61.80
24610;BME280;12758;47.890;11.694;2023-06-14T07:12:42;93473.03;;;17.55;59.96
24610;BME280;12758;47.890;11.694;2023-06-14T07:15:08;93486.09;;;17.73;58.52
24610;BME280;12758;47.890;11.694;2023-06-14T07:17:34;93481.75;;;17.72;56.69
24610;BME280;12758;47.890;11.694;2023-06-14T07:20:01;93481.66;;;17.54;57.07
24610;BME280;12758;47.890;11.694;2023-06-14T07:22:31;93488.84;;;17.73;56.81
24610;BME280;12758;47.890;11.694;2023-06-14T07:24:57;93492.69;;;17.61;58.84
24610;BME280;12758;47.890;11.694;2023-06-14T07:27:23;93496.38;;;17.83;56.88
24610;BME280;12758;47.890;11.694;2023-06-14T07:29:49;93495.88;;;17.70;56.35
24610;BME280;12758;47.890;11.694;2023-06-14T07:32:15;93500.44;;;18.03;56.31
24610;BME280;12758;47.890;11.694;2023-06-14T07:34:41;93498.44;;;18.00;56.42
24610;BME280;12758;47.890;11.694;2023-06-14T07:37:07;93503.63;;;18.12;55.38
24610;BME280;12758;47.890;11.694;2023-06-14T07:39:34;93502.41;;;18.06;56.13
24610;BME280;12758;47.890;11.694;2023-06-14T07:42:00;93517.75;;;18.14;55.67
24610;BME280;12758;47.890;11.694;2023-06-14T07:44:29;93505.16;;;17.51;59.04
24610;BME280;12758;47.890;11.694;2023-06-14T07:46:55;93510.91;;;17.87;57.33
24610;BME280;12758;47.890;11.694;2023-06-14T07:49:23;93509.84;;;18.02;56.36
24610;BME280;12758;47.890;11.694;2023-06-14T07:51:50;93509.16;;;17.64;58.36
24610;BME280;12758;47.890;11.694;2023-06-14T07:54:16;93510.25;;;18.04;57.24
24610;BME280;12758;47.890;11.694;2023-06-14T07:56:43;93497.69;;;18.03;55.78
24610;BME280;12758;47.890;11.694;2023-06-14T07:59:09;93507.91;;;18.06;56.57
24610;BME280;12758;47.890;11.694;2023-06-14T08:01:35;93508.00;;;18.21;55.55
24610;BME280;12758;47.890;11.694;2023-06-14T08:04:01;93511.84;;;18.12;56.39
24610;BME280;12758;47.890;11.694;2023-06-14T08:06:27;93507.16;;;18.16;55.76
24610;BME280;12758;47.890;11.694;2023-06-14T08:08:53;93507.72;;;17.78;57.24
24610;BME280;12758;47.890;11.694;2023-06-14T08:11:19;93513.47;;;18.17;56.29
24610;BME280;12758;47.890;11.694;2023-06-14T08:13:46;93511.13;;;18.23;55.27
24610;BME280;12758;47.890;11.694;2023-06-14T08:16:12;93513.47;;;18.21;54.82
24610;BME280;12758;47.890;11.694;2023-06-14T08:18:38;93514.31;;;18.32;54.60
24610;BME280;12758;47.890;11.694;2023-06-14T08:21:04;93517.09;;;18.39;54.54
24610;BME280;12758;47.890;11.694;2023-06-14T08:23:31;93523.72;;;18.27;55.80
24610;BME280;12758;47.890;11.694;2023-06-14T08:25:57;93522.19;;;18.37;54.65
24610;BME280;12758;47.890;11.694;2023-06-14T08:28:24;93519.13;;;18.56;50.17
24610;BME280;12758;47.890;11.694;2023-06-14T08:30:50;93524.19;;;18.44;52.75
24610;BME280;12758;47.890;11.694;2023-06-14T08:33:16;93526.53;;;18.45;52.40
24610;BME280;12758;47.890;11.694;2023-06-14T08:35:42;93528.38;;;18.20;47.17
24610;BME280;12758;47.890;11.694;2023-06-14T08:38:09;93525.28;;;18.28;52.65
24610;BME280;12758;47.890;11.694;2023-06-14T08:40:37;93531.69;;;18.50;52.40
24610;BME280;12758;47.890;11.694;2023-06-14T08:43:03;93531.25;;;18.45;53.27
24610;BME280;12758;47.890;11.694;2023-06-14T08:45:29;93532.91;;;18.63;51.24
24610;BME280;12758;47.890;11.694;2023-06-14T08:47:56;93528.59;;;18.66;49.25
24610;BME280;12758;47.890;11.694;2023-06-14T08:50:25;93522.72;;;18.71;48.84
24610;BME280;12758;47.890;11.694;2023-06-14T08:52:56;93528.16;;;18.53;46.85
24610;BME280;12758;47.890;11.694;2023-06-14T08:55:26;93529.34;;;18.59;48.83
24610;BME280;12758;47.890;11.694;2023-06-14T08:57:53;93529.34;;;18.56;49.55
24610;BME280;12758;47.890;11.694;2023-06-14T09:00:20;93530.16;;;18.67;49.53
24610;BME280;12758;47.890;11.694;2023-06-14T09:02:46;93533.38;;;18.80;48.85
24610;BME280;12758;47.890;11.694;2023-06-14T09:05:13;93528.97;;;18.68;49.65
24610;BME280;12758;47.890;11.694;2023-06-14T09:07:39;93532.59;;;18.83;49.12
24610;BME280;12758;47.890;11.694;2023-06-14T09:10:08;93529.88;;;18.94;48.68
24610;BME280;12758;47.890;11.694;2023-06-14T09:12:35;93532.59;;;18.76;48.59
24610;BME280;12758;47.890;11.694;2023-06-14T09:15:01;93534.16;;;18.77;49.23
24610;BME280;12758;47.890;11.694;2023-06-14T09:17:32;93532.59;;;18.76;49.63
24610;BME280;12758;47.890;11.694;2023-06-14T09:19:59;93534.16;;;18.84;48.93
24610;BME280;12758;47.890;11.694;2023-06-14T09:22:26;93536.91;;;18.84;47.93
24610;BME280;12758;47.890;11.694;2023-06-14T09:24:55;93541.28;;;18.92;48.93
24610;BME280;12758;47.890;11.694;2023-06-14T09:27:21;93545.25;;;19.09;47.41
24610;BME280;12758;47.890;11.694;2023-06-14T09:29:47;93536.56;;;18.93;45.76
24610;BME280;12758;47.890;11.694;2023-06-14T09:32:13;93535.78;;;18.92;47.70
24610;BME280;12758;47.890;11.694;2023-06-14T09:34:39;93541.28;;;18.99;46.96
24610;BME280;12758;47.890;11.694;2023-06-14T09:37:05;93549.16;;;19.01;47.07
24610;BME280;12758;47.890;11.694;2023-06-14T09:39:32;93546.78;;;18.92;47.87
24610;BME280;12758;47.890;11.694;2023-06-14T09:41:58;93541.69;;;18.94;48.09
24610;BME280;12758;47.890;11.694;2023-06-14T09:44:24;93546.00;;;18.99;47.90
24610;BME280;12758;47.890;11.694;2023-06-14T09:46:54;93546.00;;;19.02;51.48
24610;BME280;12758;47.890;11.694;2023-06-14T09:49:21;93546.00;;;18.99;50.07
24610;BME280;12758;47.890;11.694;2023-06-14T09:51:50;93551.94;;;19.04;47.71
24610;BME280;12758;47.890;11.694;2023-06-14T09:54:17;93558.22;;;19.08;49.39
24610;BME280;12758;47.890;11.694;2023-06-14T09:56:47;93552.34;;;19.10;48.72
24610;BME280;12758;47.890;11.694;2023-06-14T09:59:14;93551.53;;;19.09;48.58
24610;BME280;12758;47.890;11.694;2023-06-14T10:01:43;93569.63;;;19.11;48.30
24610;BME280;12758;47.890;11.694;2023-06-14T10:04:10;93549.97;;;19.08;47.81
24610;BME280;12758;47.890;11.694;2023-06-14T10:06:40;93545.25;;;19.05;47.06
24610;BME280;12758;47.890;11.694;2023-06-14T10:09:08;93551.16;;;19.15;47.85
24610;BME280;12758;47.890;11.694;2023-06-14T10:11:34;93549.97;;;19.19;47.52
24610;BME280;12758;47.890;11.694;2023-06-14T10:14:02;93541.72;;;19.16;47.70
24610;BME280;12758;47.890;11.694;2023-06-14T10:16:31;93547.63;;;19.18;48.65
24610;BME280;12758;47.890;11.694;2023-06-14T10:19:02;93541.34;;;19.21;47.92
24610;BME280;12758;47.890;11.694;2023-06-14T10:21:33;93532.69;;;19.19;48.18
24610;BME280;12758;47.890;11.694;2023-06-14T10:24:04;93538.19;;;19.22;47.80
24610;BME280;12758;47.890;11.694;2023-06-14T10:26:32;93540.56;;;19.24;48.73
24610;BME280;12758;47.890;11.694;2023-06-14T10:28:59;93545.28;;;19.27;48.44
24610;BME280;12758;47.890;11.694;2023-06-14T10:31:43;93535.84;;;19.21;49.53
24610;BME280;12758;47.890;11.694;2023-06-14T10:34:10;93532.72;;;19.40;47.99
24610;BME280;12758;47.890;11.694;2023-06-14T10:36:38;93526.41;;;19.29;49.07
24610;BME280;12758;47.890;11.694;2023-06-14T10:39:07;93528.00;;;19.44;48.52
24610;BME280;12758;47.890;11.694;2023-06-14T10:41:35;93530.34;;;19.35;49.37
24610;BME280;12758;47.890;11.694;2023-06-14T10:44:33;93528.00;;;19.30;49.37
24610;BME280;12758;47.890;11.694;2023-06-14T10:47:01;93524.06;;;19.38;48.27
24610;BME280;12758;47.890;11.694;2023-06-14T10:49:45;93537.44;;;19.50;47.37
24610;BME280;12758;47.890;11.694;2023-06-14T10:52:15;93531.16;;;19.53;47.43
24610;BME280;12758;47.890;11.694;2023-06-14T10:55:04;93534.28;;;19.41;46.71
24610;BME280;12758;47.890;11.694;2023-06-14T10:57:31;93522.09;;;19.57;45.98
24610;BME280;12758;47.890;11.694;2023-06-14T10:59:57;93527.22;;;19.54;48.72
24610;BME280;12758;47.890;11.694;2023-06-14T11:05:26;93530.38;;;19.64;49.80
24610;BME280;12758;47.890;11.694;2023-06-14T11:08:04;93533.16;;;19.64;45.77
24610;BME280;12758;47.890;11.694;2023-06-14T11:10:40;93535.88;;;19.53;48.13
24610;BME280;12758;47.890;11.694;2023-06-14T11:13:06;93536.66;;;19.53;49.09
24610;BME280;12758;47.890;11.694;2023-06-14T11:15:34;93538.22;;;19.58;48.78
24610;BME280;12758;47.890;11.694;2023-06-14T11:18:01;93532.34;;;19.74;47.06
24610;BME280;12758;47.890;11.694;2023-06-14T11:20:30;93540.63;;;19.88;47.65
24610;BME280;12758;47.890;11.694;2023-06-14T11:22:56;93524.06;;;20.17;41.39
24610;BME280;12758;47.890;11.694;2023-06-14T11:25:22;93534.69;;;19.93;46.80
24610;BME280;12758;47.890;11.694;2023-06-14T11:27:49;93531.19;;;19.68;47.73
24610;BME280;12758;47.890;11.694;2023-06-14T11:30:15;93520.13;;;19.61;45.88
24610;BME280;12758;47.890;11.694;2023-06-14T11:32:42;93524.06;;;19.42;47.48
24610;BME280;12758;47.890;11.694;2023-06-14T11:35:09;93528.78;;;19.48;46.14
24610;BME280;12758;47.890;11.694;2023-06-14T11:37:36;93520.13;;;19.32;48.25
24610;BME280;12758;47.890;11.694;2023-06-14T11:40:03;93518.94;;;19.26;48.70
24610;BME280;12758;47.890;11.694;2023-06-14T11:42:33;93519.34;;;19.53;44.36
24610;BME280;12758;47.890;11.694;2023-06-14T11:45:00;93516.19;;;19.47;47.23
24610;BME280;12758;47.890;11.694;2023-06-14T11:47:31;93524.06;;;19.60;47.86
24610;BME280;12758;47.890;11.694;2023-06-14T11:49:58;93523.28;;;19.48;48.04
24610;BME280;12758;47.890;11.694;2023-06-14T11:52:24;93513.84;;;19.49;47.74
24610;BME280;12758;47.890;11.694;2023-06-14T11:54:50;93517.41;;;19.82;44.66
24610;BME280;12758;47.890;11.694;2023-06-14T11:57:17;93511.09;;;19.92;43.74
24610;BME280;12758;47.890;11.694;2023-06-14T11:59:44;93523.31;;;19.84;46.14
24610;BME280;12758;47.890;11.694;2023-06-14T12:02:13;93516.22;;;19.76;43.90
24610;BME280;12758;47.890;11.694;2023-06-14T12:04:40;93508.34;;;19.89;47.99
24610;BME280;12758;47.890;11.694;2023-06-14T12:07:10;93515.84;;;19.67;47.25
24610;BME280;12758;47.890;11.694;2023-06-14T12:09:38;93517.00;;;19.80;46.50
24610;BME280;12758;47.890;11.694;2023-06-14T12:12:05;93513.09;;;19.67;46.82
24610;BME280;12758;47.890;11.694;2023-06-14T12:14:32;93509.97;;;19.65;47.41
24610;BME280;12758;47.890;11.694;2023-06-14T12:17:04;93513.47;;;19.62;47.28
24610;BME280;12758;47.890;11.694;2023-06-14T12:19:31;93513.03;;;20.06;45.16
24610;BME280;12758;47.890;11.694;2023-06-14T12:21:59;93509.84;;;20.18;44.61
24610;BME280;12758;47.890;11.694;2023-06-14T12:24:27;93511.50;;;19.80;46.39
24610;BME280;12758;47.890;11.694;2023-06-14T12:26:57;93502.06;;;19.92;46.51
24610;BME280;12758;47.890;11.694;2023-06-14T12:29:24;93508.75;;;19.94;47.26
24610;BME280;12758;47.890;11.694;2023-06-14T12:31:50;93502.03;;;19.99;48.03
24610;BME280;12758;47.890;11.694;2023-06-14T12:34:16;93512.25;;;20.13;46.71
24610;BME280;12758;47.890;11.694;2023-06-14T12:36:42;93513.84;;;19.92;47.01
24610;BME280;12758;47.890;11.694;2023-06-14T12:39:10;93515.00;;;20.06;46.19
24610;BME280;12758;47.890;11.694;2023-06-14T12:41:36;93507.56;;;19.88;46.69
24610;BME280;12758;47.890;11.694;2023-06-14T12:44:03;93509.50;;;20.06;46.72
24610;BME280;12758;47.890;11.694;2023-06-14T12:46:30;93509.81;;;20.36;44.90
24610;BME280;12758;47.890;11.694;2023-06-14T12:48:56;93515.38;;;20.15;45.86
24610;BME280;12758;47.890;11.694;2023-06-14T12:51:22;93515.34;;;20.22;43.53
24610;BME280;12758;47.890;11.694;2023-06-14T12:53:49;93515.44;;;20.00;46.18